createdAt,value
2019-01-18T00:00:01.081Z,62.48
2019-01-18T01:02:05.160Z,75.92
2019-01-18T01:07:06.454Z,76.12
2019-01-18T01:12:07.748Z,74.14
2019-01-18T01:17:09.065Z,71.44
2019-01-18T01:22:11.114Z,68.94
2019-01-18T01:27:15.928Z,67.64
2019-01-18T02:35:37.290Z,65.04
2019-01-18T02:40:38.567Z,63.71
2019-01-18T02:45:44.913Z,64.53
2019-01-18T02:50:46.227Z,65.17
2019-01-18T02:55:47.493Z,63.59
2019-01-18T04:04:10.351Z,62.37
2019-01-18T04:09:11.662Z,62.69
2019-01-18T04:14:13.686Z,62.28
2019-01-18T04:19:15.070Z,62.43
2019-01-18T04:24:16.364Z,62.33
2019-01-18T04:29:17.641Z,63.32
2019-01-18T05:31:19.277Z,59.25
2019-01-18T05:36:20.565Z,59.63
2019-01-18T05:41:21.830Z,58.79
2019-01-18T05:46:23.113Z,59.89
2019-01-18T05:51:24.408Z,59.64
2019-01-18T05:56:26.456Z,59.41
2019-01-18T07:04:48.805Z,57.25
2019-01-18T07:09:50.855Z,56.00
2019-01-18T07:14:55.494Z,56.33
2019-01-18T07:19:56.959Z,55.70
2019-01-18T07:24:58.273Z,56.16
2019-01-18T07:29:59.574Z,56.29
2019-01-18T08:32:03.199Z,54.64
2019-01-18T08:37:04.566Z,55.25
2019-01-18T08:42:05.976Z,54.77
2019-01-18T08:47:08.946Z,54.33
2019-01-18T08:52:10.300Z,53.49
2019-01-18T08:57:11.677Z,54.16
2019-01-18T10:05:35.424Z,52.84
2019-01-18T10:10:37.550Z,53.18
2019-01-18T10:15:38.897Z,52.49
2019-01-18T10:20:40.319Z,53.78
2019-01-18T10:25:41.764Z,52.68
2019-01-18T11:34:04.922Z,53.76
2019-01-18T11:39:06.961Z,54.11
2019-01-18T11:44:08.253Z,54.60
2019-01-18T11:49:09.532Z,53.02
2019-01-18T11:54:11.541Z,52.07
2019-01-18T11:59:12.804Z,50.76
2019-01-18T13:01:14.894Z,44.94
2019-01-18T13:06:16.187Z,46.14
2019-01-18T13:11:17.481Z,51.41
2019-01-18T13:16:18.763Z,50.32
2019-01-18T13:21:20.058Z,49.98
2019-01-18T13:26:22.128Z,51.43
2019-01-18T14:34:43.329Z,43.89
2019-01-18T14:39:44.673Z,44.33
2019-01-18T14:44:46.738Z,41.78
2019-01-18T14:49:48.675Z,42.44
2019-01-18T14:54:50.004Z,44.88
2019-01-18T14:59:51.418Z,45.76
2019-01-18T16:01:54.050Z,48.98
2019-01-18T16:06:55.453Z,49.07
2019-01-18T16:11:56.725Z,49.17
2019-01-18T16:16:58.067Z,49.52
2019-01-18T16:21:59.342Z,49.83
2019-01-18T16:27:00.640Z,50.19
2019-01-18T16:32:01.956Z,50.66
2019-01-18T16:37:03.254Z,50.76
2019-01-18T16:42:06.217Z,50.92
2019-01-18T16:47:09.614Z,50.87
2019-01-18T16:52:11.792Z,50.81
2019-01-18T16:57:13.841Z,51.26
2019-01-18T17:02:16.685Z,51.06
2019-01-18T17:07:36.483Z,51.72
2019-01-18T17:12:38.282Z,51.61
2019-01-18T17:17:54.209Z,51.45
2019-01-18T17:22:55.509Z,51.48
2019-01-18T17:27:57.529Z,51.87
2019-01-18T17:32:58.804Z,51.97
2019-01-18T17:38:00.122Z,52.00
2019-01-18T17:43:05.900Z,52.45
2019-01-18T17:48:19.108Z,51.70
2019-01-18T17:53:23.206Z,51.87
2019-01-18T17:58:33.627Z,51.83
2019-01-18T18:03:51.245Z,52.03
2019-01-18T18:09:08.381Z,51.78
2019-01-18T18:26:05.342Z,52.47
2019-01-18T18:36:53.802Z,53.52
2019-01-18T18:42:03.776Z,52.46
2019-01-18T18:47:27.842Z,52.96
2019-01-18T18:58:20.538Z,52.85
2019-01-18T19:03:32.477Z,53.17
2019-01-18T19:08:40.585Z,53.13
2019-01-18T19:14:15.753Z,53.30
2019-01-18T19:19:37.964Z,53.64
2019-01-18T19:24:47.101Z,53.99
2019-01-18T19:35:37.576Z,54.28
2019-01-18T19:41:07.924Z,54.66
2019-01-18T19:46:13.025Z,54.56
2019-01-18T19:51:42.097Z,54.93
2019-01-18T19:56:52.444Z,54.98
2019-01-18T20:02:25.635Z,55.32
2019-01-18T20:07:34.684Z,55.12
2019-01-18T20:12:45.685Z,55.25
2019-01-18T20:17:55.750Z,54.78
2019-01-18T20:23:07.920Z,54.77
2019-01-18T20:28:24.704Z,54.79
2019-01-18T20:39:33.780Z,54.94
2019-01-18T20:50:41.829Z,55.33
2019-01-18T20:56:07.670Z,55.55
2019-01-18T21:01:16.656Z,55.34
2019-01-18T21:18:29.027Z,54.90
2019-01-18T21:23:51.145Z,55.02
2019-01-18T21:35:17.973Z,55.80
2019-01-18T21:40:27.974Z,55.86
2019-01-18T21:51:39.644Z,56.57
2019-01-18T21:56:49.935Z,56.68
2019-01-18T22:01:55.661Z,56.68
2019-01-18T22:07:19.077Z,56.91
2019-01-18T22:18:28.506Z,57.33
2019-01-18T22:23:32.198Z,58.07
2019-01-18T22:28:57.291Z,58.11
2019-01-18T22:34:07.201Z,58.34
2019-01-18T22:39:35.362Z,59.10
2019-01-18T22:44:44.397Z,58.85
2019-01-18T22:49:47.544Z,58.42
2019-01-18T22:54:59.663Z,58.47
2019-01-18T23:00:18.180Z,59.12
2019-01-18T23:31:04.500Z,59.64
2019-01-18T23:36:12.103Z,59.24
2019-01-18T23:41:31.942Z,59.14
2019-01-18T23:46:47.156Z,59.28
2019-01-18T23:52:01.437Z,59.62
2019-01-18T23:57:09.557Z,58.92
